Time;durP1;ratioP1;P1;durP2;ratioP2;P2;SDS_P1;SDS_P2;PMS_P1;PMS_P2;Temp;Humidity;BMP_temperature;BMP_pressure;BME280_temperature;BME280_humidity;BME280_pressure;Samples;Min_cycle;Max_cycle;Signal;HPM_P1;HPM_P2
2022/05/03 00:00:22;;;;;;;11.23;10.13;;;13.50;99.90;;;;;;5003392;28;20467;-89
2022/05/03 00:03:03;;;;;;;11.47;10.27;;;13.50;99.90;;;;;;5005768;28;20517;-87
2022/05/03 00:05:38;;;;;;;11.80;10.60;;;13.50;99.90;;;;;;5001595;28;20494;-87
2022/05/03 00:08:10;;;;;;;13.13;11.00;;;13.50;99.90;;;;;;4999259;28;20960;-88
2022/05/03 00:10:51;;;;;;;11.73;10.37;;;13.40;99.90;;;;;;5003172;28;20457;-87
2022/05/03 00:13:23;;;;;;;15.43;11.40;;;13.40;99.90;;;;;;5019282;28;20422;-88
2022/05/03 00:15:53;;;;;;;11.20;10.00;;;13.30;99.90;;;;;;5019242;28;20398;-88
2022/05/03 00:18:21;;;;;;;12.23;9.77;;;13.30;99.90;;;;;;5019099;28;20442;-88
2022/05/03 00:20:49;;;;;;;11.80;9.87;;;13.20;99.90;;;;;;4998688;28;20558;-87
2022/05/03 00:23:16;;;;;;;11.43;10.30;;;13.30;99.90;;;;;;4996602;28;20588;-87
2022/05/03 00:25:45;;;;;;;11.70;10.50;;;13.40;99.90;;;;;;4996270;28;20426;-87
2022/05/03 00:28:12;;;;;;;12.97;11.23;;;13.30;99.90;;;;;;4996168;28;20472;-87
2022/05/03 00:30:40;;;;;;;11.27;10.10;;;13.30;99.90;;;;;;4997904;28;20426;-87
2022/05/03 00:33:09;;;;;;;11.50;10.20;;;13.30;99.90;;;;;;4997970;28;20538;-86
2022/05/03 00:35:36;;;;;;;12.43;10.63;;;13.30;99.90;;;;;;4997790;28;20480;-87
2022/05/03 00:38:03;;;;;;;11.80;10.20;;;13.30;99.90;;;;;;5011511;28;20454;-88
2022/05/03 00:40:34;;;;;;;12.87;11.57;;;13.30;99.90;;;;;;5018420;28;20453;-89
2022/05/03 00:43:09;;;;;;;13.60;10.27;;;13.20;99.90;;;;;;5018498;28;20526;-89
2022/05/03 00:45:43;;;;;;;12.07;10.57;;;13.10;99.90;;;;;;5017453;28;20432;-88
2022/05/03 00:48:40;;;;;;;12.03;10.77;;;13.00;99.90;;;;;;5003528;28;20529;-88
2022/05/03 00:51:14;;;;;;;13.53;10.97;;;13.00;99.90;;;;;;4989530;28;20490;-88
2022/05/03 00:53:55;;;;;;;13.40;10.80;;;13.00;99.90;;;;;;4997212;28;20448;-87
2022/05/03 00:56:34;;;;;;;11.83;10.67;;;13.00;99.90;;;;;;4999581;28;20449;-87
2022/05/03 00:59:08;;;;;;;14.07;11.70;;;13.00;99.90;;;;;;4996893;28;20969;-87
2022/05/03 01:01:41;;;;;;;13.67;11.23;;;13.00;99.90;;;;;;4996411;28;20787;-87
2022/05/03 01:04:21;;;;;;;14.87;11.80;;;13.00;99.90;;;;;;4998811;28;20932;-88
2022/05/03 01:06:55;;;;;;;11.87;10.67;;;12.90;99.90;;;;;;5003858;28;20867;-88
2022/05/03 01:09:31;;;;;;;12.50;11.20;;;12.90;99.90;;;;;;5006278;28;20854;-89
2022/05/03 01:12:23;;;;;;;11.80;10.37;;;12.90;99.90;;;;;;4996305;28;20924;-89
2022/05/03 01:15:06;;;;;;;17.63;10.80;;;12.80;99.90;;;;;;4996478;28;20525;-88
2022/05/03 01:17:42;;;;;;;12.00;10.80;;;12.80;99.90;;;;;;5012701;28;20448;-87
2022/05/03 01:20:11;;;;;;;16.03;11.00;;;12.80;99.90;;;;;;5008422;28;20432;-87
2022/05/03 01:23:14;;;;;;;19.20;11.47;;;12.70;99.90;;;;;;4999523;28;20469;-87
2022/05/03 01:25:55;;;;;;;12.00;10.73;;;12.60;99.90;;;;;;4998126;28;20460;-87
2022/05/03 01:28:31;;;;;;;12.77;11.47;;;12.60;99.90;;;;;;4996549;28;20508;-87
2022/05/03 01:31:04;;;;;;;11.83;10.63;;;12.60;99.90;;;;;;4995706;28;20459;-87
2022/05/03 01:33:34;;;;;;;14.83;11.47;;;12.50;99.90;;;;;;4995264;28;20920;-88
2022/05/03 01:36:04;;;;;;;13.50;10.93;;;12.40;99.90;;;;;;4995539;28;20455;-87
2022/05/03 01:38:50;;;;;;;14.97;11.20;;;12.40;99.90;;;;;;4994534;28;20503;-87
2022/05/03 01:41:28;;;;;;;13.60;11.30;;;12.40;99.90;;;;;;4994647;28;20893;-87
2022/05/03 01:44:10;;;;;;;12.73;11.30;;;12.40;99.90;;;;;;4995106;28;20507;-88
2022/05/03 01:46:39;;;;;;;13.63;11.53;;;12.40;99.90;;;;;;4995279;28;20494;-87
2022/05/03 01:52:39;;;;;;;11.47;10.33;;;12.40;99.90;;;;;;5009607;28;20391;-87
2022/05/03 01:55:43;;;;;;;12.80;11.43;;;12.30;99.90;;;;;;4924162;29;20439;-87
2022/05/03 01:58:24;;;;;;;12.57;11.20;;;12.30;99.90;;;;;;4984248;28;20483;-87
2022/05/03 02:01:03;;;;;;;15.67;11.90;;;12.30;99.90;;;;;;4994917;28;20450;-87
2022/05/03 02:03:42;;;;;;;15.13;11.77;;;12.20;99.90;;;;;;4995271;28;20666;-87
2022/05/03 02:06:11;;;;;;;12.93;11.63;;;12.10;99.90;;;;;;4994515;28;20415;-87
2022/05/03 02:08:52;;;;;;;13.23;11.83;;;12.10;99.90;;;;;;4997265;28;20478;-87
2022/05/03 02:11:41;;;;;;;12.80;11.57;;;12.00;99.90;;;;;;4998124;28;20502;-87
2022/05/03 02:17:04;;;;;;;15.23;12.60;;;12.00;99.90;;;;;;5000043;28;20494;-87
2022/05/03 02:20:12;;;;;;;13.37;11.90;;;12.00;99.90;;;;;;5003870;28;20443;-87
2022/05/03 02:22:55;;;;;;;12.40;11.00;;;11.90;99.90;;;;;;4997604;28;20394;-88
2022/05/03 02:25:36;;;;;;;13.10;11.70;;;11.80;99.90;;;;;;4998701;28;20870;-87
2022/05/03 02:28:17;;;;;;;13.73;11.93;;;11.90;99.90;;;;;;4998701;28;21009;-87
2022/05/03 02:30:45;;;;;;;14.30;11.50;;;11.90;99.90;;;;;;4998765;28;21007;-88
2022/05/03 02:33:20;;;;;;;12.70;11.40;;;11.90;99.90;;;;;;4998900;28;20479;-87
2022/05/03 02:35:52;;;;;;;13.90;11.77;;;11.90;99.90;;;;;;4999664;28;20821;-87
2022/05/03 02:38:21;;;;;;;13.43;12.03;;;11.80;99.90;;;;;;5002431;28;20889;-87
2022/05/03 02:40:53;;;;;;;17.40;12.23;;;11.80;99.90;;;;;;5004730;28;20409;-87
2022/05/03 02:43:25;;;;;;;14.10;11.60;;;11.80;99.90;;;;;;5020158;28;20437;-86
2022/05/03 02:45:58;;;;;;;13.20;11.80;;;11.80;99.90;;;;;;5018754;28;20510;-87
2022/05/03 02:48:34;;;;;;;12.87;11.50;;;11.60;99.90;;;;;;4997846;28;20557;-88
2022/05/03 02:51:04;;;;;;;15.50;12.97;;;11.50;99.90;;;;;;4998132;28;20431;-88
2022/05/03 02:53:42;;;;;;;14.63;13.10;;;11.50;99.90;;;;;;4998868;28;20424;-88
2022/05/03 02:56:19;;;;;;;15.80;13.13;;;11.50;99.90;;;;;;4998284;28;20515;-88
2022/05/03 02:59:02;;;;;;;14.20;12.33;;;11.60;99.90;;;;;;5001203;28;20506;-88
2022/05/03 03:01:50;;;;;;;13.93;12.47;;;11.60;99.90;;;;;;5003695;28;20914;-88
2022/05/03 03:04:32;;;;;;;13.53;12.13;;;11.50;99.90;;;;;;5002303;28;20656;-88
2022/05/03 03:07:01;;;;;;;13.40;12.00;;;11.50;99.90;;;;;;4999780;28;20978;-88
2022/05/03 03:09:39;;;;;;;14.63;12.33;;;11.50;99.90;;;;;;4997739;28;20455;-88
2022/05/03 03:12:18;;;;;;;13.47;12.07;;;11.60;99.90;;;;;;4998182;28;20443;-88
2022/05/03 03:14:48;;;;;;;14.30;12.43;;;11.50;99.90;;;;;;5000897;28;20423;-88
2022/05/03 03:17:20;;;;;;;15.57;12.10;;;11.40;99.90;;;;;;4999138;28;20566;-87
2022/05/03 03:20:04;;;;;;;13.87;12.33;;;11.40;99.90;;;;;;5002780;28;20463;-87
2022/05/03 03:22:36;;;;;;;15.73;12.97;;;11.40;99.90;;;;;;4999141;28;20470;-87
2022/05/03 03:25:05;;;;;;;15.80;13.30;;;11.30;99.90;;;;;;4997596;28;20574;-87
2022/05/03 03:27:33;;;;;;;14.93;13.33;;;11.40;99.90;;;;;;4996776;28;20474;-86
2022/05/03 03:30:03;;;;;;;15.80;13.80;;;11.30;99.90;;;;;;4997130;28;20959;-87
2022/05/03 03:32:30;;;;;;;14.70;12.73;;;11.30;99.90;;;;;;4997556;28;20451;-87
2022/05/03 03:35:01;;;;;;;15.07;12.60;;;11.10;99.90;;;;;;4997200;28;20822;-87
2022/05/03 03:37:31;;;;;;;16.10;13.43;;;11.10;99.90;;;;;;4997159;28;20564;-88
2022/05/03 03:40:00;;;;;;;14.90;13.03;;;11.10;99.90;;;;;;4997106;28;20451;-87
2022/05/03 03:42:28;;;;;;;15.30;13.43;;;11.20;99.90;;;;;;4997264;28;20931;-87
2022/05/03 03:45:01;;;;;;;14.93;13.43;;;11.20;99.90;;;;;;5002079;28;20553;-87
2022/05/03 03:47:29;;;;;;;15.83;14.13;;;11.10;99.90;;;;;;4997758;28;20553;-87
2022/05/03 03:49:58;;;;;;;14.97;13.40;;;11.20;99.90;;;;;;5002857;28;20497;-87
2022/05/03 03:52:29;;;;;;;15.57;13.97;;;11.10;99.90;;;;;;5007910;28;20922;-87
2022/05/03 03:54:56;;;;;;;15.33;13.60;;;11.10;99.90;;;;;;5002041;28;20432;-85
2022/05/03 03:57:25;;;;;;;16.33;14.03;;;11.00;99.90;;;;;;5003311;28;20471;-87
2022/05/03 03:59:52;;;;;;;17.10;13.97;;;11.10;99.90;;;;;;5008301;28;20459;-87
2022/05/03 04:02:20;;;;;;;16.97;14.03;;;11.20;99.90;;;;;;5018197;28;20468;-87
2022/05/03 04:04:49;;;;;;;17.73;14.47;;;11.10;99.90;;;;;;5006066;28;20550;-88
2022/05/03 04:07:16;;;;;;;16.43;13.90;;;11.10;99.90;;;;;;5004806;28;20451;-88
2022/05/03 04:09:43;;;;;;;16.17;14.37;;;11.10;99.90;;;;;;5018720;28;20477;-84
2022/05/03 04:12:10;;;;;;;17.50;13.60;;;11.10;99.90;;;;;;5018938;28;20415;-84
2022/05/03 04:14:38;;;;;;;17.30;13.90;;;11.00;99.90;;;;;;5018864;28;20451;-82
2022/05/03 04:17:05;;;;;;;16.30;14.60;;;11.00;99.90;;;;;;5019089;28;20455;-84
2022/05/03 04:19:32;;;;;;;16.20;14.50;;;10.90;99.90;;;;;;5018973;28;20499;-84
2022/05/03 04:22:12;;;;;;;17.30;14.07;;;10.80;99.90;;;;;;5018968;28;20398;-85
2022/05/03 04:24:40;;;;;;;15.17;13.53;;;10.80;99.90;;;;;;5012298;28;20565;-86
2022/05/03 04:27:07;;;;;;;16.27;14.07;;;10.80;99.90;;;;;;5006147;28;20825;-86
2022/05/03 04:29:37;;;;;;;17.50;14.20;;;10.80;99.90;;;;;;4999123;28;20463;-86
2022/05/03 04:32:09;;;;;;;16.17;13.67;;;10.80;99.90;;;;;;5001677;28;20451;-87
2022/05/03 04:34:36;;;;;;;16.10;14.00;;;10.80;99.90;;;;;;4997701;28;20957;-87
2022/05/03 04:37:05;;;;;;;17.03;14.97;;;10.80;99.90;;;;;;4999049;28;20549;-88
2022/05/03 04:39:31;;;;;;;18.13;15.40;;;10.90;99.90;;;;;;4998370;28;20458;-86
2022/05/03 04:42:01;;;;;;;20.60;15.53;;;10.90;99.90;;;;;;4996858;28;20463;-87
2022/05/03 04:44:28;;;;;;;16.60;14.80;;;10.90;99.90;;;;;;4998175;28;20501;-87
2022/05/03 04:46:55;;;;;;;20.43;16.90;;;10.90;99.90;;;;;;4997210;28;20629;-87
2022/05/03 04:49:23;;;;;;;18.30;15.47;;;10.90;99.90;;;;;;4999440;28;20531;-87
2022/05/03 04:51:50;;;;;;;19.07;16.13;;;11.00;99.90;;;;;;4998648;28;20522;-87
2022/05/03 04:54:17;;;;;;;16.50;14.80;;;11.00;99.90;;;;;;4998072;28;20487;-87
2022/05/03 04:56:50;;;;;;;17.57;15.43;;;11.10;99.90;;;;;;4999606;28;20461;-87
2022/05/03 04:59:18;;;;;;;22.00;15.90;;;11.10;99.90;;;;;;4998705;28;20533;-87
2022/05/03 05:01:45;;;;;;;17.63;15.77;;;11.10;99.90;;;;;;4999290;28;20458;-87
2022/05/03 05:04:12;;;;;;;20.13;17.50;;;11.10;99.90;;;;;;4998365;28;20487;-87
2022/05/03 05:06:42;;;;;;;18.10;15.83;;;11.20;99.90;;;;;;4997710;28;20546;-87
2022/05/03 05:09:09;;;;;;;20.00;16.60;;;11.40;99.90;;;;;;4997017;28;20530;-87
2022/05/03 05:11:36;;;;;;;18.67;16.67;;;11.50;99.90;;;;;;4997837;28;20459;-87
2022/05/03 05:14:03;;;;;;;19.70;17.60;;;11.60;99.90;;;;;;4997528;28;20534;-87
2022/05/03 05:16:33;;;;;;;19.87;17.30;;;11.50;99.90;;;;;;4996945;28;20510;-86
2022/05/03 05:19:00;;;;;;;19.30;17.30;;;11.50;99.90;;;;;;4997771;28;20562;-87
2022/05/03 05:21:27;;;;;;;20.07;17.97;;;11.50;99.90;;;;;;5007133;28;20446;-86
2022/05/03 05:23:55;;;;;;;19.57;17.17;;;11.60;99.90;;;;;;5016087;28;20454;-86
2022/05/03 05:26:22;;;;;;;20.90;16.80;;;11.80;99.90;;;;;;5017556;28;20467;-86
2022/05/03 05:28:57;;;;;;;21.53;17.17;;;11.80;99.90;;;;;;5014859;28;20478;-87
2022/05/03 05:31:23;;;;;;;19.30;15.97;;;12.00;99.90;;;;;;5003796;28;20430;-87
2022/05/03 05:33:50;;;;;;;18.57;16.33;;;12.10;99.90;;;;;;5011548;28;20454;-87
2022/05/03 05:36:18;;;;;;;19.67;17.60;;;12.10;99.90;;;;;;5017141;28;20555;-85
2022/05/03 05:41:37;;;;;;;20.03;17.90;;;12.20;99.90;;;;;;5014465;28;20469;-85
2022/05/03 05:44:04;;;;;;;20.10;17.00;;;12.20;99.90;;;;;;5016908;28;20441;-87
2022/05/03 05:46:31;;;;;;;19.20;17.17;;;12.30;99.90;;;;;;5002473;28;20459;-87
2022/05/03 05:48:58;;;;;;;20.23;18.07;;;12.30;99.90;;;;;;5034480;23;20494;-87
2022/05/03 05:51:25;;;;;;;18.63;16.63;;;12.50;99.90;;;;;;5031331;28;20516;-88
2022/05/03 05:53:51;;;;;;;20.30;17.30;;;12.60;99.90;;;;;;5030726;28;20474;-88
2022/05/03 05:56:18;;;;;;;20.77;18.27;;;12.60;99.90;;;;;;5024701;28;20417;-87
2022/05/03 05:58:46;;;;;;;20.57;17.70;;;12.70;99.90;;;;;;5025220;28;20234;-87
2022/05/03 06:01:13;;;;;;;22.23;19.73;;;12.80;99.90;;;;;;5025513;28;20434;-87
2022/05/03 06:03:42;;;;;;;21.90;19.00;;;12.90;99.90;;;;;;5029447;28;20446;-86
2022/05/03 06:06:09;;;;;;;20.17;18.00;;;13.00;99.90;;;;;;5031434;28;20472;-87
2022/05/03 06:08:37;;;;;;;22.17;19.30;;;13.20;99.90;;;;;;5032802;28;20533;-88
2022/05/03 06:11:04;;;;;;;25.20;20.47;;;13.20;99.90;;;;;;5031926;28;20459;-87
2022/05/03 06:13:31;;;;;;;20.63;18.43;;;13.30;99.90;;;;;;5031524;28;20438;-88
2022/05/03 06:16:09;;;;;;;22.00;19.60;;;13.50;99.90;;;;;;5029884;28;20503;-88
2022/05/03 06:18:36;;;;;;;22.80;18.43;;;13.60;99.90;;;;;;5029863;28;20474;-88
2022/05/03 06:21:05;;;;;;;23.37;19.73;;;13.90;99.90;;;;;;5024827;28;20433;-88
2022/05/03 06:23:32;;;;;;;21.77;19.50;;;14.00;99.90;;;;;;5023129;28;20458;-87
2022/05/03 06:25:59;;;;;;;21.40;18.83;;;13.90;99.90;;;;;;5023742;28;20486;-87
2022/05/03 06:28:26;;;;;;;21.13;18.83;;;14.10;99.90;;;;;;5023930;28;20528;-87
2022/05/03 06:30:53;;;;;;;23.67;19.33;;;14.20;99.90;;;;;;5023290;28;20439;-88
2022/05/03 06:33:21;;;;;;;24.23;18.50;;;14.30;99.90;;;;;;5026738;28;20450;-87
2022/05/03 06:35:48;;;;;;;21.97;19.67;;;14.30;99.90;;;;;;5030624;28;20430;-88
2022/05/03 06:38:15;;;;;;;21.60;18.07;;;14.50;99.90;;;;;;5024727;28;20471;-88
2022/05/03 06:40:42;;;;;;;21.93;17.97;;;14.60;99.90;;;;;;5024492;28;20510;-87
2022/05/03 06:43:09;;;;;;;20.70;18.50;;;14.70;99.90;;;;;;5023072;28;20489;-88
2022/05/03 06:45:36;;;;;;;22.33;19.47;;;14.80;99.90;;;;;;5025500;28;20486;-88
2022/05/03 06:48:06;;;;;;;21.93;18.43;;;15.10;99.90;;;;;;5029948;28;20481;-88
2022/05/03 06:50:34;;;;;;;21.43;18.10;;;15.20;99.90;;;;;;5035070;28;20428;-89
2022/05/03 06:53:01;;;;;;;19.47;17.10;;;15.40;99.90;;;;;;5026800;28;20448;-87
2022/05/03 06:55:28;;;;;;;20.33;18.23;;;15.40;99.90;;;;;;5026226;28;20443;-87
2022/05/03 06:57:55;;;;;;;20.87;18.83;;;15.60;99.90;;;;;;5024842;28;20486;-87
2022/05/03 07:00:24;;;;;;;21.23;18.67;;;15.60;99.90;;;;;;5023973;28;20489;-87
2022/05/03 07:02:51;;;;;;;21.07;17.23;;;15.60;99.90;;;;;;5023067;28;20529;-88
2022/05/03 07:05:18;;;;;;;22.83;17.70;;;15.70;99.90;;;;;;5020461;28;20458;-85
2022/05/03 07:07:46;;;;;;;21.20;17.70;;;15.70;99.90;;;;;;5019748;28;20441;-86
2022/05/03 07:10:15;;;;;;;22.80;17.90;;;15.60;99.90;;;;;;5024946;28;20464;-87
2022/05/03 07:12:42;;;;;;;22.33;17.57;;;15.60;99.90;;;;;;5024885;28;20538;-87
2022/05/03 07:15:10;;;;;;;18.80;16.80;;;15.60;99.90;;;;;;5019688;28;20878;-87
2022/05/03 07:23:08;;;;;;;17.17;15.37;;;16.00;99.90;;;;;;5025194;28;20392;-88
2022/05/03 07:25:35;;;;;;;20.97;16.50;;;16.20;99.90;;;;;;5025155;28;20806;-87
2022/05/03 07:28:03;;;;;;;18.07;14.70;;;16.20;99.90;;;;;;5026179;28;20466;-86
2022/05/03 07:30:30;;;;;;;16.47;14.37;;;16.10;99.90;;;;;;5025290;28;20433;-87
2022/05/03 07:32:59;;;;;;;18.67;16.30;;;16.10;99.90;;;;;;5027382;28;20735;-87
2022/05/03 07:35:26;;;;;;;19.57;15.63;;;16.00;99.90;;;;;;5027535;28;20491;-86
2022/05/03 07:37:53;;;;;;;21.03;15.07;;;16.20;99.90;;;;;;5027695;28;20429;-88
2022/05/03 07:40:22;;;;;;;16.40;12.30;;;16.30;99.90;;;;;;5027395;28;20515;-87
2022/05/03 07:42:49;;;;;;;15.50;13.30;;;16.20;99.90;;;;;;5025491;28;20557;-86
2022/05/03 07:45:16;;;;;;;14.93;13.43;;;16.10;99.90;;;;;;5025605;28;20474;-86
2022/05/03 07:47:43;;;;;;;14.90;11.97;;;16.00;99.90;;;;;;5024344;28;20513;-86
2022/05/03 07:50:11;;;;;;;16.10;13.70;;;16.00;99.90;;;;;;5024353;28;20489;-86
2022/05/03 07:52:39;;;;;;;15.40;11.17;;;16.10;99.90;;;;;;5023835;28;20430;-85
2022/05/03 07:55:08;;;;;;;12.97;11.40;;;16.10;99.90;;;;;;5025482;28;20785;-86
2022/05/03 07:57:37;;;;;;;13.90;11.37;;;16.20;99.90;;;;;;5025090;28;20405;-87
2022/05/03 08:00:05;;;;;;;13.67;11.87;;;16.30;99.90;;;;;;5033841;28;20500;-87
2022/05/03 08:02:34;;;;;;;12.13;10.93;;;16.40;99.90;;;;;;5031792;28;20483;-88
2022/05/03 08:05:01;;;;;;;13.03;11.07;;;16.50;99.90;;;;;;5035356;28;20468;-87
2022/05/03 08:07:28;;;;;;;12.63;10.57;;;16.60;99.90;;;;;;5026951;28;20433;-87
2022/05/03 08:09:56;;;;;;;11.17;10.07;;;16.60;99.90;;;;;;5025979;28;20470;-88
2022/05/03 08:12:23;;;;;;;12.37;10.57;;;16.60;99.90;;;;;;5025291;28;20446;-88
2022/05/03 08:14:52;;;;;;;11.83;10.00;;;16.90;99.90;;;;;;5025201;28;20452;-87
2022/05/03 08:17:19;;;;;;;16.13;12.20;;;17.00;99.90;;;;;;5025107;28;20446;-87
2022/05/03 08:19:46;;;;;;;12.17;10.63;;;17.10;99.90;;;;;;5024290;28;20465;-88
2022/05/03 08:22:13;;;;;;;11.37;9.53;;;17.20;99.90;;;;;;5026211;28;20540;-88
2022/05/03 08:24:45;;;;;;;11.67;8.60;;;17.30;99.90;;;;;;5030907;28;20429;-88
2022/05/03 08:27:11;;;;;;;10.67;8.33;;;17.30;99.90;;;;;;5031522;28;20430;-88
2022/05/03 08:29:38;;;;;;;8.53;7.63;;;17.30;99.90;;;;;;5033183;28;20449;-88
2022/05/03 08:32:09;;;;;;;9.20;8.20;;;17.50;99.90;;;;;;5034641;28;20489;-88
2022/05/03 08:34:36;;;;;;;10.47;8.07;;;17.60;99.90;;;;;;5032889;28;20488;-88
2022/05/03 08:42:33;;;;;;;9.00;6.90;;;17.90;99.90;;;;;;5029308;28;20508;-87
2022/05/03 08:45:01;;;;;;;9.43;6.40;;;17.90;99.90;;;;;;5025848;28;20834;-87
2022/05/03 08:47:29;;;;;;;8.20;7.20;;;17.90;99.90;;;;;;5025165;28;20463;-88
2022/05/03 08:50:02;;;;;;;7.87;6.37;;;17.80;99.90;;;;;;5026134;28;20433;-88
2022/05/03 08:52:33;;;;;;;8.90;6.50;;;17.90;99.90;;;;;;5028362;28;20417;-88
2022/05/03 08:55:02;;;;;;;8.50;7.40;;;17.90;99.90;;;;;;5029835;28;20429;-88
2022/05/03 08:57:29;;;;;;;6.73;5.73;;;18.00;99.90;;;;;;5029869;28;20420;-88
2022/05/03 08:59:57;;;;;;;8.47;6.20;;;18.00;99.90;;;;;;5026797;28;20493;-87
2022/05/03 09:02:25;;;;;;;10.77;6.70;;;18.10;99.90;;;;;;5024287;28;20428;-88
2022/05/03 09:04:53;;;;;;;9.47;7.83;;;18.30;99.90;;;;;;5023980;28;20477;-88
2022/05/03 09:07:22;;;;;;;10.23;7.30;;;18.50;99.90;;;;;;5024225;28;20516;-87
2022/05/03 09:09:50;;;;;;;9.20;6.10;;;18.50;99.70;;;;;;5024353;28;20522;-87
2022/05/03 09:12:28;;;;;;;8.73;5.83;;;18.50;98.80;;;;;;5023262;28;20439;-86
2022/05/03 09:14:57;;;;;;;10.10;6.50;;;18.50;97.70;;;;;;5023355;28;20465;-89
2022/05/03 09:17:38;;;;;;;9.07;6.53;;;18.60;98.40;;;;;;5023635;28;20445;-88
2022/05/03 09:25:53;;;;;;;6.87;5.17;;;19.20;95.40;;;;;;5023509;28;20484;-87
2022/05/03 09:28:22;;;;;;;8.87;6.30;;;19.20;95.00;;;;;;5024011;28;20483;-87
2022/05/03 09:30:52;;;;;;;6.67;5.87;;;19.30;95.60;;;;;;5024326;28;20481;-88
2022/05/03 09:33:21;;;;;;;7.60;5.50;;;19.10;95.50;;;;;;5022900;28;20435;-88
2022/05/03 09:35:51;;;;;;;7.20;6.50;;;19.40;96.00;;;;;;5025239;28;20484;-88
2022/05/03 09:38:18;;;;;;;9.03;6.77;;;19.40;95.90;;;;;;5026124;28;20452;-88
2022/05/03 09:40:49;;;;;;;9.47;6.70;;;19.50;95.40;;;;;;5029676;28;20532;-88
2022/05/03 09:43:17;;;;;;;8.03;5.37;;;19.60;94.50;;;;;;5027396;28;20952;-87
2022/05/03 09:45:44;;;;;;;8.17;6.30;;;19.60;94.50;;;;;;5025518;28;20482;-88
2022/05/03 09:48:11;;;;;;;7.10;6.03;;;19.40;94.80;;;;;;5024662;28;20486;-87
2022/05/03 09:50:43;;;;;;;8.63;6.43;;;19.40;95.30;;;;;;5025450;28;20515;-88
2022/05/03 09:53:17;;;;;;;6.90;5.23;;;19.30;95.40;;;;;;5031354;28;20487;-88
2022/05/03 09:55:45;;;;;;;8.97;6.47;;;19.30;95.60;;;;;;5034911;28;20482;-87
2022/05/03 09:58:14;;;;;;;10.83;8.33;;;19.50;94.90;;;;;;5032318;28;20494;-88
2022/05/03 10:00:43;;;;;;;9.00;7.50;;;19.30;95.60;;;;;;5024995;28;20454;-87
2022/05/03 10:03:11;;;;;;;9.53;7.30;;;19.30;96.20;;;;;;5024142;28;20459;-87
2022/05/03 10:05:39;;;;;;;10.53;7.93;;;19.20;96.10;;;;;;5026435;28;20535;-88
2022/05/03 10:08:08;;;;;;;7.50;6.40;;;19.30;95.90;;;;;;5023123;28;20497;-86
2022/05/03 10:10:37;;;;;;;9.50;6.97;;;19.30;95.40;;;;;;5023424;28;20450;-88
2022/05/03 10:13:04;;;;;;;7.23;5.17;;;19.30;94.90;;;;;;5022979;28;20528;-88
2022/05/03 10:21:14;;;;;;;9.03;6.30;;;19.50;93.70;;;;;;5024441;28;20413;-88
2022/05/03 10:23:41;;;;;;;7.43;5.63;;;19.40;94.30;;;;;;5024188;28;20453;-87
2022/05/03 10:26:10;;;;;;;8.30;6.80;;;19.20;94.50;;;;;;5024586;28;20514;-87
2022/05/03 10:29:06;;;;;;;6.80;5.60;;;19.40;94.50;;;;;;5025936;28;20486;-86
2022/05/03 10:31:53;;;;;;;6.70;5.00;;;19.60;93.90;;;;;;4992001;28;20436;-86
2022/05/03 10:34:45;;;;;;;7.07;5.80;;;19.70;93.00;;;;;;5033237;28;20455;-88
2022/05/03 10:37:13;;;;;;;10.93;6.00;;;19.50;93.50;;;;;;5033412;28;20468;-87
2022/05/03 10:39:55;;;;;;;6.87;5.67;;;19.50;93.70;;;;;;5029635;28;20458;-87
2022/05/03 10:42:27;;;;;;;8.30;6.30;;;19.60;93.90;;;;;;5024225;28;20931;-86
2022/05/03 10:45:00;;;;;;;6.97;6.00;;;19.70;94.10;;;;;;5031896;28;20478;-87
2022/05/03 10:47:44;;;;;;;6.93;5.33;;;19.70;94.10;;;;;;5032459;28;20478;-88
2022/05/03 10:50:36;;;;;;;6.87;5.63;;;19.80;94.50;;;;;;5029698;28;20517;-88
2022/05/03 10:53:26;;;;;;;7.03;5.30;;;19.70;93.90;;;;;;5027637;28;20540;-88
2022/05/03 10:56:09;;;;;;;8.57;6.43;;;19.70;94.60;;;;;;5029151;28;20427;-87
2022/05/03 10:58:47;;;;;;;6.40;5.30;;;19.90;94.40;;;;;;5029100;28;20425;-87
2022/05/03 11:01:17;;;;;;;7.40;6.43;;;19.90;94.60;;;;;;5027621;28;20429;-87
2022/05/03 11:04:09;;;;;;;7.30;5.50;;;19.90;94.30;;;;;;5027859;28;20504;-86
2022/05/03 11:06:41;;;;;;;7.33;5.97;;;19.90;93.80;;;;;;5028154;28;20448;-89
2022/05/03 11:09:18;;;;;;;7.77;6.70;;;20.10;93.70;;;;;;5026918;28;20478;-88
2022/05/03 11:12:02;;;;;;;7.63;6.40;;;20.20;93.20;;;;;;5027036;28;20834;-88
2022/05/03 11:14:54;;;;;;;6.97;5.63;;;20.10;94.00;;;;;;5027023;28;20419;-87
2022/05/03 11:17:22;;;;;;;6.60;5.73;;;20.30;92.10;;;;;;5026284;28;20505;-87
2022/05/03 11:19:59;;;;;;;7.40;6.60;;;20.40;91.80;;;;;;5027171;28;20870;-88
2022/05/03 11:22:31;;;;;;;8.63;6.50;;;20.50;91.60;;;;;;5025959;28;20438;-89
2022/05/03 11:24:59;;;;;;;6.83;5.80;;;20.60;91.30;;;;;;5027882;28;20436;-87
2022/05/03 11:27:27;;;;;;;7.17;6.10;;;20.70;91.10;;;;;;5026444;28;20541;-88
2022/05/03 11:30:05;;;;;;;7.10;6.40;;;20.80;91.10;;;;;;5026299;28;20457;-88
2022/05/03 11:32:38;;;;;;;7.07;6.07;;;20.70;91.10;;;;;;5027534;28;20493;-87
2022/05/03 11:35:10;;;;;;;6.43;5.57;;;20.60;91.50;;;;;;5028360;28;20474;-87
2022/05/03 11:37:46;;;;;;;7.57;6.10;;;20.60;91.50;;;;;;5026297;28;20443;-88
2022/05/03 11:40:14;;;;;;;6.73;5.97;;;20.80;91.30;;;;;;5028049;28;20491;-88
2022/05/03 11:42:45;;;;;;;7.53;6.10;;;20.90;91.20;;;;;;5029873;28;20816;-88
2022/05/03 11:45:15;;;;;;;7.40;6.47;;;21.10;90.60;;;;;;5036936;28;20436;-87
2022/05/03 11:47:45;;;;;;;7.97;5.90;;;21.20;90.50;;;;;;5030237;28;20521;-88
2022/05/03 11:56:04;;;;;;;8.73;6.47;;;21.40;89.90;;;;;;5025075;28;20497;-87
2022/05/03 11:58:33;;;;;;;6.97;6.27;;;21.60;89.60;;;;;;5029332;28;20813;-88
2022/05/03 12:01:02;;;;;;;11.93;5.63;;;21.90;86.10;;;;;;5028448;28;20450;-87
2022/05/03 12:03:44;;;;;;;6.70;5.40;;;21.90;83.60;;;;;;5025989;28;20446;-86
2022/05/03 12:06:11;;;;;;;6.33;5.30;;;21.70;80.60;;;;;;5022840;28;20569;-86
2022/05/03 12:08:39;;;;;;;9.20;6.10;;;21.80;82.50;;;;;;5023830;28;20481;-86
2022/05/03 12:11:16;;;;;;;8.53;6.57;;;22.00;84.60;;;;;;5023579;28;20482;-87
2022/05/03 12:13:43;;;;;;;10.83;7.23;;;21.50;86.30;;;;;;5024871;28;20445;-86
2022/05/03 12:16:15;;;;;;;7.90;5.50;;;21.40;85.90;;;;;;5022877;28;20949;-86
2022/05/03 12:18:46;;;;;;;6.57;5.70;;;21.70;85.20;;;;;;5030322;28;22310;-87
2022/05/03 12:21:14;;;;;;;6.23;5.50;;;21.80;84.00;;;;;;5028032;28;20413;-87
2022/05/03 12:23:44;;;;;;;8.10;5.57;;;22.00;82.00;;;;;;5036937;28;20453;-85
2022/05/03 12:26:24;;;;;;;6.90;5.90;;;21.90;82.10;;;;;;5039351;28;20486;-87
2022/05/03 12:28:53;;;;;;;8.87;7.87;;;21.50;81.70;;;;;;5038532;28;20494;-86
2022/05/03 12:31:28;;;;;;;8.43;7.60;;;21.50;90.20;;;;;;5038560;28;20883;-87
2022/05/03 12:33:56;;;;;;;11.20;7.30;;;21.40;90.90;;;;;;5038704;28;20465;-86
2022/05/03 12:36:35;;;;;;;8.97;6.33;;;21.50;90.50;;;;;;5038708;28;20472;-87
2022/05/03 12:39:17;;;;;;;8.77;6.67;;;21.50;90.40;;;;;;5030485;28;20445;-87
2022/05/03 12:41:50;;;;;;;9.10;6.70;;;21.30;89.40;;;;;;5025663;28;20469;-87
2022/05/03 12:44:19;;;;;;;7.87;5.87;;;21.00;89.80;;;;;;5024063;28;20581;-88
2022/05/03 12:47:02;;;;;;;8.70;6.50;;;21.00;90.10;;;;;;5022927;28;20453;-86
2022/05/03 12:49:41;;;;;;;8.40;6.30;;;21.10;90.30;;;;;;5022637;28;20533;-87
2022/05/03 12:52:19;;;;;;;7.60;5.63;;;21.10;90.60;;;;;;5027986;28;20451;-88
2022/05/03 12:54:48;;;;;;;6.97;5.80;;;20.70;91.40;;;;;;5030955;28;20446;-86
2022/05/03 13:00:06;;;;;;;10.17;4.60;;;20.30;90.60;;;;;;5032216;28;20553;-86
2022/05/03 13:02:38;;;;;;;8.10;4.43;;;19.70;90.90;;;;;;5024914;28;20435;-87
2022/05/03 13:05:11;;;;;;;7.73;4.50;;;19.50;91.50;;;;;;5024061;28;20511;-87
2022/05/03 13:07:41;;;;;;;6.60;4.73;;;19.30;92.20;;;;;;5030187;28;20508;-88
2022/05/03 13:10:08;;;;;;;10.93;4.53;;;18.90;94.00;;;;;;5029267;28;20472;-89
2022/05/03 13:12:36;;;;;;;6.23;4.43;;;18.50;97.00;;;;;;5028303;28;20455;-89
2022/05/03 13:15:03;;;;;;;7.33;4.30;;;18.10;98.10;;;;;;5028534;28;20487;-89
2022/05/03 13:17:30;;;;;;;8.20;5.43;;;17.90;99.90;;;;;;5028908;28;20478;-88
2022/05/03 13:19:59;;;;;;;7.80;5.23;;;17.70;99.90;;;;;;5025234;28;20507;-86
2022/05/03 13:22:26;;;;;;;14.80;6.40;;;17.50;99.90;;;;;;5024628;28;20457;-87
2022/05/03 13:24:53;;;;;;;11.20;6.13;;;17.30;99.90;;;;;;5027995;28;20453;-87
2022/05/03 13:27:19;;;;;;;8.67;6.07;;;17.30;99.90;;;;;;5030639;28;20449;-88
2022/05/03 13:29:46;;;;;;;9.40;7.57;;;17.00;99.90;;;;;;5030125;28;20451;-87
2022/05/03 13:32:13;;;;;;;9.83;6.93;;;16.80;99.90;;;;;;5025620;28;20797;-89
2022/05/03 13:34:40;;;;;;;10.27;6.03;;;16.70;99.90;;;;;;5029669;28;20440;-86